Time;durP1;ratioP1;P1;durP2;ratioP2;P2;SDS_P1;SDS_P2;PMS_P1;PMS_P2;Temp;Humidity;BMP_temperature;BMP_pressure;BME280_temperature;BME280_humidity;BME280_pressure;Samples;Min_cycle;Max_cycle;Signal;HPM_P1;HPM_P2
2022/10/10 00:01:37;;;;;;;11.05;2.00;;;;;;;12.30;100.00;101599.41;4937110;29;20090;-72
2022/10/10 00:04:03;;;;;;;9.57;2.05;;;;;;;12.28;100.00;101598.75;4901193;29;20052;-72
2022/10/10 00:06:29;;;;;;;9.65;1.80;;;;;;;12.28;100.00;101598.75;4898149;29;20127;-72
2022/10/10 00:08:55;;;;;;;11.52;1.77;;;;;;;12.23;100.00;101586.69;4913906;29;20126;-72
2022/10/10 00:11:23;;;;;;;8.23;1.35;;;;;;;12.28;100.00;101586.09;4913385;29;20036;-72
2022/10/10 00:13:49;;;;;;;9.38;1.50;;;;;;;12.30;100.00;101599.41;4898356;29;20059;-72
2022/10/10 00:16:16;;;;;;;14.27;2.38;;;;;;;12.30;100.00;101594.84;4914051;29;20466;-72
2022/10/10 00:18:42;;;;;;;9.70;1.30;;;;;;;12.29;100.00;101597.75;4898426;29;20036;-72
2022/10/10 00:21:08;;;;;;;10.90;1.70;;;;;;;12.27;100.00;101586.31;4898360;29;20056;-72
2022/10/10 00:23:34;;;;;;;12.13;2.00;;;;;;;12.20;100.00;101583.53;4898099;29;20036;-72
2022/10/10 00:26:00;;;;;;;12.85;1.90;;;;;;;12.13;100.00;101566.44;4913834;29;20067;-71
2022/10/10 00:28:26;;;;;;;14.20;1.80;;;;;;;12.15;100.00;101576.03;4914157;29;20427;-71
2022/10/10 00:30:51;;;;;;;10.32;1.70;;;;;;;12.21;100.00;101571.72;4914017;29;20052;-71
2022/10/10 00:33:16;;;;;;;10.35;1.67;;;;;;;12.20;100.00;101572.75;4913820;29;20036;-72
2022/10/10 00:35:42;;;;;;;5.90;1.50;;;;;;;12.21;100.00;101560.91;4882607;29;20040;-73
2022/10/10 00:38:08;;;;;;;7.95;1.50;;;;;;;12.21;100.00;101559.06;4913967;29;20533;-72
2022/10/10 00:40:34;;;;;;;8.85;1.50;;;;;;;12.26;100.00;101560.38;4903686;29;20429;-73
2022/10/10 00:42:59;;;;;;;9.05;1.55;;;;;;;11.97;100.00;101510.88;4954122;28;20044;-72
2022/10/10 00:45:27;;;;;;;9.07;1.73;;;;;;;12.28;100.00;101552.88;4937019;29;20074;-72
2022/10/10 00:48:07;;;;;;;6.57;1.63;;;;;;;12.31;100.00;101558.75;4954095;29;20027;-72
2022/10/10 00:50:38;;;;;;;7.75;1.80;;;;;;;12.28;100.00;101542.94;4936531;29;20046;-72
2022/10/10 00:53:07;;;;;;;14.25;1.88;;;;;;;12.16;100.00;101518.34;4936625;29;20664;-72
2022/10/10 00:55:34;;;;;;;8.95;1.63;;;;;;;12.38;100.00;101548.00;4954079;28;20505;-72
2022/10/10 00:58:00;;;;;;;11.02;1.65;;;;;;;12.30;100.00;101538.19;4936772;29;20039;-73
2022/10/10 01:00:26;;;;;;;12.35;2.00;;;;;;;12.40;100.00;101552.19;4953386;29;20050;-72
2022/10/10 01:02:51;;;;;;;9.00;1.65;;;;;;;12.39;100.00;101533.50;4953358;29;20035;-72
2022/10/10 01:05:17;;;;;;;7.50;1.52;;;;;;;12.37;100.00;101530.16;4935948;29;20050;-72
2022/10/10 01:07:44;;;;;;;9.48;1.63;;;;;;;12.40;100.00;101536.00;4953484;29;20470;-72
2022/10/10 01:10:16;;;;;;;12.68;1.98;;;;;;;12.41;100.00;101534.97;4953530;28;20062;-72
2022/10/10 01:12:50;;;;;;;9.95;1.50;;;;;;;12.43;100.00;101537.47;4953278;29;20078;-72
2022/10/10 01:15:34;;;;;;;6.45;1.35;;;;;;;12.44;100.00;101537.28;4936263;29;20118;-72
2022/10/10 01:18:20;;;;;;;8.35;1.42;;;;;;;12.45;100.00;101520.06;4940013;29;20035;-70
2022/10/10 01:20:58;;;;;;;11.63;1.70;;;;;;;12.50;100.00;101522.19;4935978;28;20500;-73
2022/10/10 01:23:47;;;;;;;11.20;1.58;;;;;;;12.51;100.00;101518.44;4960805;29;20046;-72
2022/10/10 01:26:50;;;;;;;11.82;1.95;;;;;;;12.51;100.00;101523.00;4964193;29;20047;-71
2022/10/10 01:29:29;;;;;;;9.63;1.65;;;;;;;12.51;100.00;101518.44;4946502;29;20094;-71
2022/10/10 01:32:01;;;;;;;13.93;1.80;;;;;;;12.55;100.00;101522.44;4933624;29;20023;-71
2022/10/10 01:34:35;;;;;;;9.93;1.75;;;;;;;12.40;100.00;101478.50;4946949;29;20670;-71
2022/10/10 01:37:30;;;;;;;15.05;2.03;;;;;;;12.56;100.00;101510.59;4964314;29;20031;-70
2022/10/10 01:40:23;;;;;;;14.88;2.05;;;;;;;12.58;100.00;101508.56;4933970;29;20015;-71
2022/10/10 01:42:54;;;;;;;11.48;2.20;;;;;;;12.58;100.00;101505.00;4905023;29;20055;-71
2022/10/10 01:45:19;;;;;;;7.13;1.73;;;;;;;12.56;100.00;101499.81;4883317;29;20036;-72
2022/10/10 01:47:47;;;;;;;10.65;2.42;;;;;;;12.53;100.00;101502.06;4893779;29;20045;-71
2022/10/10 01:50:17;;;;;;;12.65;2.28;;;;;;;12.51;100.00;101494.16;4893749;29;20543;-71
2022/10/10 01:53:13;;;;;;;12.30;1.98;;;;;;;12.45;100.00;101492.25;4893842;29;20040;-71
2022/10/10 01:55:44;;;;;;;;;;;;;;;12.47;100.00;101487.47;4878456;29;20515;-71
2022/10/10 01:58:37;;;;;;;11.43;2.33;;;;;;;12.46;100.00;101480.41;4875223;29;19982;-71
2022/10/10 02:01:12;;;;;;;12.60;1.70;;;;;;;12.45;100.00;101476.88;4888445;29;20115;-71
2022/10/10 02:03:44;;;;;;;10.15;2.00;;;;;;;12.43;100.00;101473.53;4877381;29;20169;-71
2022/10/10 02:06:39;;;;;;;11.18;1.95;;;;;;;12.45;100.00;101473.34;4893889;29;20044;-71
2022/10/10 02:09:11;;;;;;;16.13;2.25;;;;;;;12.44;100.00;101475.19;4892004;29;20092;-72
2022/10/10 02:11:38;;;;;;;12.10;2.08;;;;;;;12.48;100.00;101481.03;4893188;29;20381;-71
2022/10/10 02:14:14;;;;;;;13.00;1.95;;;;;;;12.51;100.00;101472.53;4933278;29;20047;-71
2022/10/10 02:16:44;;;;;;;13.55;1.90;;;;;;;12.53;100.00;101472.38;4952725;29;20043;-71
2022/10/10 02:19:15;;;;;;;13.65;2.45;;;;;;;12.39;100.00;101437.19;4952686;28;20035;-72
2022/10/10 02:21:41;;;;;;;19.75;2.72;;;;;;;12.57;100.00;101450.16;4934812;29;20024;-71
2022/10/10 02:24:09;;;;;;;8.88;1.70;;;;;;;12.59;100.00;101461.63;4919480;29;20058;-71
2022/10/10 02:26:36;;;;;;;13.20;1.92;;;;;;;12.61;100.00;101447.91;4952598;29;20278;-71
2022/10/10 02:29:16;;;;;;;10.30;1.70;;;;;;;12.64;100.00;101451.06;4919555;29;20046;-71
2022/10/10 02:32:07;;;;;;;15.57;2.22;;;;;;;12.63;100.00;101453.97;4952346;29;20553;-71
2022/10/10 02:34:37;;;;;;;12.75;1.98;;;;;;;12.55;100.00;101437.91;4910176;28;20054;-71
2022/10/10 02:37:09;;;;;;;10.13;1.65;;;;;;;12.62;100.00;101446.91;4938663;29;20035;-72
2022/10/10 02:39:48;;;;;;;11.63;2.05;;;;;;;12.63;100.00;101445.88;4938605;29;20462;-71
2022/10/10 02:42:17;;;;;;;12.52;2.08;;;;;;;12.60;100.00;101440.84;4955754;29;20024;-71
2022/10/10 02:44:44;;;;;;;14.05;1.80;;;;;;;12.46;100.00;101415.63;4955835;29;20070;-71
2022/10/10 02:47:10;;;;;;;13.20;2.03;;;;;;;12.50;100.00;101410.66;4939097;29;20031;-71
2022/10/10 02:49:35;;;;;;;12.18;1.85;;;;;;;12.60;100.00;101432.75;4938491;29;20517;-71
2022/10/10 02:52:02;;;;;;;13.32;2.55;;;;;;;12.53;100.00;101419.22;4938013;29;20058;-72
2022/10/10 02:54:27;;;;;;;15.93;2.80;;;;;;;12.53;100.00;101427.31;4938463;29;20030;-71
2022/10/10 02:56:52;;;;;;;10.70;2.08;;;;;;;12.37;100.00;101395.22;4938633;29;20480;-71
2022/10/10 02:59:18;;;;;;;11.32;2.15;;;;;;;12.48;100.00;101413.56;4955769;29;20035;-71
2022/10/10 03:01:44;;;;;;;18.48;2.78;;;;;;;12.42;100.00;101411.66;4954880;28;20046;-71
2022/10/10 03:04:09;;;;;;;13.40;1.92;;;;;;;12.29;100.00;101395.38;4938347;29;20070;-71
2022/10/10 03:06:35;;;;;;;14.35;2.22;;;;;;;12.37;100.00;101414.09;4955477;28;20039;-71
2022/10/10 03:09:00;;;;;;;17.42;2.30;;;;;;;12.26;100.00;101398.47;4955526;29;20039;-71
2022/10/10 03:11:26;;;;;;;10.95;2.25;;;;;;;12.29;100.00;101412.41;4955297;29;20368;-71
2022/10/10 03:13:51;;;;;;;17.33;3.25;;;;;;;12.14;100.00;101390.06;4938386;29;20089;-71
2022/10/10 03:16:16;;;;;;;13.60;2.55;;;;;;;12.28;100.00;101407.19;4955331;29;20529;-72
2022/10/10 03:18:42;;;;;;;12.30;1.85;;;;;;;12.18;100.00;101394.84;4955526;29;20041;-71
2022/10/10 03:21:07;;;;;;;16.17;2.40;;;;;;;12.22;100.00;101401.56;4955238;29;20495;-72
2022/10/10 03:23:34;;;;;;;16.50;2.38;;;;;;;12.20;100.00;101400.06;4954992;29;20067;-71
2022/10/10 03:26:00;;;;;;;13.98;2.40;;;;;;;12.19;100.00;101393.84;4954958;29;20047;-71
2022/10/10 03:28:25;;;;;;;13.48;2.70;;;;;;;12.19;100.00;101399.25;4922276;29;20050;-71
2022/10/10 03:30:51;;;;;;;15.07;2.30;;;;;;;12.18;100.00;101391.31;4937737;29;20123;-71
2022/10/10 03:33:16;;;;;;;15.88;2.45;;;;;;;12.13;100.00;101383.00;4955151;29;20383;-72
2022/10/10 03:35:41;;;;;;;13.43;2.40;;;;;;;12.11;100.00;101383.19;4954998;29;20032;-71
2022/10/10 03:38:07;;;;;;;16.20;2.58;;;;;;;11.98;100.00;101358.78;4954949;28;20051;-72
2022/10/10 03:40:33;;;;;;;12.00;2.35;;;;;;;12.08;100.00;101380.88;4937670;29;20537;-71
2022/10/10 03:42:58;;;;;;;20.77;2.58;;;;;;;12.05;100.00;101367.75;4954710;29;20038;-71
2022/10/10 03:45:24;;;;;;;15.77;2.05;;;;;;;12.05;100.00;101365.06;4936390;29;20031;-71
2022/10/10 03:47:50;;;;;;;15.35;2.55;;;;;;;12.03;100.00;101377.94;4937735;29;20038;-73
2022/10/10 03:50:18;;;;;;;15.32;2.20;;;;;;;12.01;100.00;101361.09;4954371;29;20039;-72
2022/10/10 03:52:44;;;;;;;17.33;2.83;;;;;;;11.98;100.00;101354.22;4937384;29;20035;-71
2022/10/10 03:55:09;;;;;;;14.20;2.15;;;;;;;12.00;100.00;101359.44;4937368;29;20042;-71
2022/10/10 03:57:35;;;;;;;15.30;2.13;;;;;;;11.98;100.00;101356.09;4954455;29;20035;-71
2022/10/10 04:00:00;;;;;;;14.63;2.15;;;;;;;11.97;100.00;101351.75;4937298;29;20070;-71
2022/10/10 04:02:25;;;;;;;14.82;2.20;;;;;;;11.96;100.00;101336.59;4954560;29;20402;-71
2022/10/10 04:04:51;;;;;;;7.25;1.65;;;;;;;11.99;100.00;101347.00;4918231;29;20039;-71
2022/10/10 04:07:16;;;;;;;16.60;2.20;;;;;;;11.97;100.00;101344.47;4950410;29;20038;-71
2022/10/10 04:09:41;;;;;;;17.90;2.20;;;;;;;11.93;100.00;101331.59;4954323;28;20054;-72
2022/10/10 04:12:07;;;;;;;11.07;1.80;;;;;;;11.94;100.00;101338.63;4937263;29;20159;-72
2022/10/10 04:14:32;;;;;;;11.02;1.85;;;;;;;11.90;100.00;101337.38;4954042;28;20517;-72
2022/10/10 04:16:58;;;;;;;12.07;2.00;;;;;;;11.77;100.00;101303.00;4917869;29;20122;-71
2022/10/10 04:19:23;;;;;;;9.52;2.17;;;;;;;11.91;100.00;101325.53;4934122;29;20042;-71
2022/10/10 04:21:48;;;;;;;13.38;2.08;;;;;;;11.90;100.00;101319.31;4936690;29;20560;-72
2022/10/10 04:24:14;;;;;;;12.95;2.40;;;;;;;11.88;100.00;101324.06;4936832;29;20039;-72
2022/10/10 04:26:39;;;;;;;15.48;2.03;;;;;;;11.86;100.00;101312.66;4953986;29;20031;-72
2022/10/10 04:29:05;;;;;;;16.42;2.80;;;;;;;11.80;100.00;101301.78;4953968;28;20039;-71
2022/10/10 04:31:30;;;;;;;14.15;2.30;;;;;;;11.88;100.00;101304.34;4936425;29;20039;-72
2022/10/10 04:33:56;;;;;;;11.73;1.98;;;;;;;11.89;100.00;101300.66;4953475;29;20117;-72
2022/10/10 04:36:21;;;;;;;13.18;2.50;;;;;;;11.90;100.00;101296.91;4953286;29;20054;-72
2022/10/10 04:38:47;;;;;;;12.68;2.70;;;;;;;11.88;100.00;101291.69;4953801;29;20047;-72
2022/10/10 04:41:12;;;;;;;15.48;2.65;;;;;;;11.82;100.00;101281.69;4936456;29;20035;-72
2022/10/10 04:43:38;;;;;;;14.18;2.55;;;;;;;11.89;100.00;101290.69;4936281;29;20046;-72
2022/10/10 04:46:03;;;;;;;14.70;2.88;;;;;;;11.89;100.00;101287.16;4936558;29;20043;-72
2022/10/10 04:48:28;;;;;;;16.50;2.42;;;;;;;11.89;100.00;101289.88;4936507;29;20054;-72
2022/10/10 04:50:56;;;;;;;11.60;2.75;;;;;;;11.89;100.00;101287.16;4953880;29;20027;-72
2022/10/10 04:53:23;;;;;;;13.30;2.80;;;;;;;11.87;100.00;101286.53;4953861;28;20031;-72
2022/10/10 04:55:48;;;;;;;18.55;2.30;;;;;;;11.89;100.00;101284.47;4937713;28;20050;-71
2022/10/10 04:58:14;;;;;;;9.32;2.15;;;;;;;11.88;100.00;101277.38;4917420;29;20032;-71
2022/10/10 05:00:39;;;;;;;19.33;2.60;;;;;;;11.88;100.00;101274.69;4944640;29;20150;-72
2022/10/10 05:03:05;;;;;;;16.77;2.33;;;;;;;11.86;100.00;101269.50;4934669;29;20512;-72
2022/10/10 05:05:31;;;;;;;12.88;2.28;;;;;;;11.79;100.00;101252.44;4935944;29;20035;-71
2022/10/10 05:07:56;;;;;;;12.75;2.58;;;;;;;11.85;100.00;101256.22;4936568;29;20027;-72
2022/10/10 05:10:23;;;;;;;13.65;2.33;;;;;;;11.86;100.00;101253.34;4953395;29;20063;-72
2022/10/10 05:12:49;;;;;;;18.65;3.10;;;;;;;11.90;100.00;101248.38;4953353;29;20034;-72
2022/10/10 05:15:14;;;;;;;18.50;2.20;;;;;;;11.80;100.00;101227.13;4953043;29;20402;-71
2022/10/10 05:17:40;;;;;;;17.13;2.95;;;;;;;11.88;100.00;101240.47;4934110;29;20042;-71
2022/10/10 05:20:05;;;;;;;19.77;2.42;;;;;;;11.65;100.00;101208.34;4952069;29;20122;-73
2022/10/10 05:22:33;;;;;;;12.40;2.65;;;;;;;11.83;100.00;101248.31;4936140;29;20027;-71
2022/10/10 05:24:58;;;;;;;17.83;2.67;;;;;;;11.67;100.00;101210.84;4953116;29;20050;-72
2022/10/10 05:27:27;;;;;;;12.02;2.10;;;;;;;11.82;100.00;101235.00;4936489;29;20055;-72
2022/10/10 05:29:54;;;;;;;14.88;2.42;;;;;;;11.83;100.00;101228.59;4935967;29;20501;-72
2022/10/10 05:32:21;;;;;;;16.52;2.53;;;;;;;11.84;100.00;101230.25;4953066;29;20041;-72
2022/10/10 05:34:46;;;;;;;12.95;2.47;;;;;;;11.84;100.00;101227.56;4936207;29;20489;-73
2022/10/10 05:37:11;;;;;;;13.88;2.42;;;;;;;11.80;100.00;101216.34;4935782;29;20043;-73
2022/10/10 05:39:37;;;;;;;18.88;3.00;;;;;;;11.85;100.00;101219.28;4918520;29;20082;-72
2022/10/10 05:42:02;;;;;;;17.13;2.47;;;;;;;11.87;100.00;101209.16;4953312;29;20621;-72
2022/10/10 05:44:29;;;;;;;15.20;2.35;;;;;;;11.93;100.00;101216.44;4935603;29;20110;-72
2022/10/10 05:46:55;;;;;;;13.75;2.50;;;;;;;11.95;100.00;101203.63;4953451;29;20423;-72
2022/10/10 05:49:20;;;;;;;16.98;2.65;;;;;;;11.99;100.00;101204.88;4953380;29;20147;-73
2022/10/10 05:51:46;;;;;;;13.43;2.05;;;;;;;12.01;100.00;101201.97;4919692;29;20483;-73
2022/10/10 05:54:11;;;;;;;9.15;2.38;;;;;;;12.03;100.00;101208.00;4952971;29;20499;-71
2022/10/10 05:56:37;;;;;;;13.70;2.00;;;;;;;12.01;100.00;101191.19;4952811;29;20046;-73
2022/10/10 05:59:03;;;;;;;12.23;1.98;;;;;;;12.06;100.00;101193.28;4916579;29;20036;-72
2022/10/10 06:01:28;;;;;;;15.25;2.30;;;;;;;12.09;100.00;101196.44;4932806;29;20106;-72
2022/10/10 06:03:54;;;;;;;14.07;2.50;;;;;;;12.16;100.00;101188.38;4919841;29;20083;-72
2022/10/10 06:06:21;;;;;;;12.68;2.35;;;;;;;12.03;100.00;101167.56;4916918;29;20032;-73
2022/10/10 06:08:47;;;;;;;11.73;2.10;;;;;;;12.23;100.00;101186.53;4937547;29;20114;-72
2022/10/10 06:11:14;;;;;;;16.02;2.95;;;;;;;12.17;100.00;101180.06;4939482;29;20147;-74
2022/10/10 06:13:40;;;;;;;15.50;1.90;;;;;;;12.26;100.00;101191.53;4956530;29;20027;-72
2022/10/10 06:16:05;;;;;;;13.88;2.42;;;;;;;12.29;100.00;101182.22;4939035;29;20406;-72
2022/10/10 06:18:31;;;;;;;16.95;2.45;;;;;;;12.32;100.00;101196.13;4937368;29;20035;-72
2022/10/10 06:21:01;;;;;;;8.57;1.83;;;;;;;12.22;100.00;101156.03;4954316;29;20039;-73
2022/10/10 06:23:27;;;;;;;12.93;2.20;;;;;;;12.41;100.00;101183.28;4937327;29;20027;-73
2022/10/10 06:25:53;;;;;;;10.65;2.22;;;;;;;12.44;100.00;101186.41;4937227;29;20047;-72
2022/10/10 06:28:18;;;;;;;12.35;2.97;;;;;;;12.45;100.00;101177.28;4954427;29;20041;-72
2022/10/10 06:30:47;;;;;;;11.88;2.30;;;;;;;12.39;100.00;101144.88;4954720;29;20057;-75
2022/10/10 06:33:14;;;;;;;19.52;3.50;;;;;;;12.59;100.00;101161.97;4956364;29;20367;-76
2022/10/10 06:35:44;;;;;;;11.77;2.20;;;;;;;12.52;100.00;101153.00;4938765;29;20023;-72
2022/10/10 06:38:10;;;;;;;13.77;2.17;;;;;;;12.52;100.00;101147.63;4939548;29;20114;-72
2022/10/10 06:40:35;;;;;;;11.45;2.20;;;;;;;12.60;100.00;101158.22;4956428;29;20114;-72
2022/10/10 06:43:01;;;;;;;18.48;2.67;;;;;;;12.60;100.00;101152.81;4956331;29;20513;-71
2022/10/10 06:45:26;;;;;;;11.80;2.38;;;;;;;12.64;100.00;101147.84;4938742;29;20066;-73
2022/10/10 06:47:52;;;;;;;12.73;2.53;;;;;;;12.73;100.00;101145.78;4956307;29;20035;-71
2022/10/10 06:50:17;;;;;;;13.27;2.80;;;;;;;12.73;100.00;101145.78;4938683;29;20039;-70
2022/10/10 06:52:42;;;;;;;12.13;2.38;;;;;;;12.77;100.00;101138.94;4938571;29;20420;-72
2022/10/10 06:55:08;;;;;;;18.17;2.17;;;;;;;12.75;100.00;101139.16;4919794;29;20042;-72
2022/10/10 06:57:33;;;;;;;11.85;2.22;;;;;;;12.79;100.00;101129.59;4920864;29;20043;-70
2022/10/10 06:59:59;;;;;;;11.30;2.05;;;;;;;12.84;100.00;101132.50;4955708;28;20562;-71
2022/10/10 07:02:26;;;;;;;14.90;2.42;;;;;;;12.86;100.00;101133.13;4955867;29;20075;-71
2022/10/10 07:05:01;;;;;;;20.73;2.75;;;;;;;12.93;100.00;101133.97;4938489;29;20039;-71
2022/10/10 07:07:26;;;;;;;12.73;2.40;;;;;;;12.98;100.00;101125.25;4955322;29;20035;-71
2022/10/10 07:09:51;;;;;;;13.23;2.17;;;;;;;12.92;100.00;101115.28;4938236;29;20042;-70
2022/10/10 07:12:17;;;;;;;11.32;2.45;;;;;;;13.00;100.00;101133.97;4922449;29;20659;-70
2022/10/10 07:14:42;;;;;;;13.05;2.30;;;;;;;13.01;100.00;101122.13;4937969;29;20043;-70
2022/10/10 07:17:07;;;;;;;15.98;2.30;;;;;;;13.04;100.00;101127.09;4938285;29;20494;-71
2022/10/10 07:19:36;;;;;;;13.73;2.50;;;;;;;12.87;100.00;101088.88;4954403;28;20105;-71
2022/10/10 07:22:01;;;;;;;17.48;2.50;;;;;;;13.00;100.00;101120.47;4954997;29;20143;-70
2022/10/10 07:24:27;;;;;;;15.25;2.80;;;;;;;13.01;100.00;101110.47;4955031;29;20543;-71
2022/10/10 07:26:54;;;;;;;10.75;2.15;;;;;;;12.95;100.00;101114.88;4922519;29;20125;-71
2022/10/10 07:29:20;;;;;;;10.57;2.30;;;;;;;12.85;100.00;101117.97;4938212;29;20047;-72
2022/10/10 07:31:45;;;;;;;15.70;2.70;;;;;;;12.90;100.00;101103.84;4921944;29;20565;-71
2022/10/10 07:34:11;;;;;;;19.30;2.70;;;;;;;12.93;100.00;101106.13;4938069;29;20051;-72
2022/10/10 07:36:37;;;;;;;17.63;3.38;;;;;;;12.94;100.00;101096.97;4937779;29;20031;-72
2022/10/10 07:39:02;;;;;;;14.52;2.50;;;;;;;12.89;100.00;101088.69;4955033;29;20034;-71
2022/10/10 07:41:27;;;;;;;15.23;2.15;;;;;;;13.06;100.00;101098.03;4937897;29;20044;-72
2022/10/10 07:43:54;;;;;;;11.20;2.28;;;;;;;13.10;100.00;101093.03;4937759;29;20445;-72
2022/10/10 07:46:20;;;;;;;9.75;2.15;;;;;;;13.25;100.00;101096.38;4954903;29;20122;-72
2022/10/10 07:48:47;;;;;;;13.80;2.10;;;;;;;13.42;100.00;101095.94;4937715;29;20039;-71
2022/10/10 07:51:15;;;;;;;11.57;2.60;;;;;;;13.43;100.00;101062.47;4954935;29;20144;-72
2022/10/10 07:53:41;;;;;;;14.98;2.38;;;;;;;13.65;100.00;101087.38;4955019;28;20109;-72
2022/10/10 07:56:08;;;;;;;20.17;2.35;;;;;;;13.74;100.00;101088.78;4937488;29;20030;-72
2022/10/10 07:58:34;;;;;;;17.27;2.60;;;;;;;13.80;100.00;101072.53;4954699;29;20039;-72
2022/10/10 08:01:05;;;;;;;14.20;2.83;;;;;;;13.91;100.00;101075.59;4937421;29;20035;-72
2022/10/10 08:03:30;;;;;;;10.77;2.20;;;;;;;13.92;100.00;101067.28;4937229;29;20513;-72
2022/10/10 08:05:55;;;;;;;12.25;2.60;;;;;;;13.91;100.00;101067.50;4936966;29;20031;-72
2022/10/10 08:08:21;;;;;;;10.57;2.72;;;;;;;13.93;100.00;101077.06;4937174;29;20529;-72
2022/10/10 08:10:46;;;;;;;14.63;2.40;;;;;;;13.99;100.00;101080.78;4921485;29;20073;-72
2022/10/10 08:13:12;;;;;;;12.85;2.60;;;;;;;13.87;100.00;101061.69;4937416;29;20452;-72
2022/10/10 08:15:40;;;;;;;9.65;2.08;;;;;;;13.73;100.00;101051.97;4936914;29;20118;-72
2022/10/10 08:18:06;;;;;;;10.70;2.00;;;;;;;13.78;100.00;101079.22;4954207;29;20042;-72
2022/10/10 08:20:31;;;;;;;14.15;3.35;;;;;;;13.76;100.00;101081.28;4936880;29;20043;-72
2022/10/10 08:22:57;;;;;;;10.15;2.15;;;;;;;13.71;100.00;101067.56;4936871;29;20494;-72
2022/10/10 08:25:23;;;;;;;10.80;2.25;;;;;;;13.63;100.00;101077.59;4937084;29;20061;-72
2022/10/10 08:27:48;;;;;;;12.73;2.38;;;;;;;13.56;100.00;101060.56;4936883;29;20533;-72
2022/10/10 08:30:14;;;;;;;14.25;2.05;;;;;;;13.60;100.00;101061.78;4936659;29;20095;-72
2022/10/10 08:32:39;;;;;;;13.65;2.15;;;;;;;13.59;100.00;101049.31;4917319;29;20122;-72
2022/10/10 08:35:05;;;;;;;11.60;2.35;;;;;;;13.64;100.00;101040.56;4947698;29;20038;-72
2022/10/10 08:37:30;;;;;;;14.82;3.80;;;;;;;13.92;100.00;101042.13;4936885;29;20034;-72
2022/10/10 08:39:56;;;;;;;10.32;2.65;;;;;;;14.08;100.00;101061.38;4936734;29;20054;-72
2022/10/10 08:42:35;;;;;;;15.95;2.30;;;;;;;14.22;99.46;101053.19;4916727;29;20455;-72
2022/10/10 08:45:23;;;;;;;14.63;2.25;;;;;;;14.22;99.35;101031.53;4946120;29;20031;-72
2022/10/10 08:47:57;;;;;;;12.75;2.80;;;;;;;14.41;99.38;101049.53;4877626;29;20516;-72
2022/10/10 08:50:28;;;;;;;17.02;2.97;;;;;;;14.46;99.15;101043.47;4878661;29;20096;-72
2022/10/10 08:53:00;;;;;;;12.50;2.20;;;;;;;14.55;98.43;101050.31;4877333;29;20175;-72
2022/10/10 08:55:32;;;;;;;10.73;2.20;;;;;;;14.64;97.50;101051.72;4893898;29;20483;-72
2022/10/10 08:58:17;;;;;;;13.48;2.28;;;;;;;14.85;96.36;101033.41;4878109;29;20519;-72
2022/10/10 09:00:48;;;;;;;9.40;1.92;;;;;;;14.96;95.93;101038.91;4878723;29;20032;-72
2022/10/10 09:03:24;;;;;;;11.38;2.60;;;;;;;14.80;95.59;101015.09;4857031;29;20061;-72
2022/10/10 09:06:28;;;;;;;9.85;2.10;;;;;;;14.78;95.27;100987.41;4841593;29;20128;-72
2022/10/10 09:09:13;;;;;;;12.93;2.38;;;;;;;15.11;94.32;101024.22;4857269;29;20154;-72
2022/10/10 09:12:05;;;;;;;9.43;2.07;;;;;;;15.15;94.11;101004.56;4847352;29;20033;-72
2022/10/10 09:14:57;;;;;;;13.25;2.80;;;;;;;15.08;93.79;101005.69;4862141;29;20345;-72
2022/10/10 09:17:47;;;;;;;9.50;2.28;;;;;;;14.90;93.83;101001.03;4849390;29;20025;-72
2022/10/10 09:20:40;;;;;;;9.95;2.05;;;;;;;14.76;93.59;100994.91;4915553;29;20085;-71
2022/10/10 09:23:20;;;;;;;11.32;1.75;;;;;;;14.66;93.49;100987.28;4925804;29;20047;-72
2022/10/10 09:25:57;;;;;;;8.15;2.20;;;;;;;14.52;94.46;100992.00;4923396;29;20064;-72
2022/10/10 09:28:43;;;;;;;13.02;2.33;;;;;;;14.46;94.63;100992.03;4922864;29;20566;-72
2022/10/10 09:31:30;;;;;;;9.45;2.05;;;;;;;14.64;94.19;100988.59;4907697;29;20111;-72
2022/10/10 09:34:06;;;;;;;13.38;2.35;;;;;;;14.67;94.13;100983.56;4919324;29;20086;-72
2022/10/10 09:36:35;;;;;;;10.88;2.50;;;;;;;14.50;94.58;100988.69;4963782;29;20095;-72
2022/10/10 09:39:03;;;;;;;8.48;2.03;;;;;;;14.51;93.71;100984.09;4964008;29;20099;-72
2022/10/10 09:41:53;;;;;;;11.98;2.28;;;;;;;14.62;93.49;100983.38;4946708;29;20498;-72
2022/10/10 09:44:22;;;;;;;11.02;2.17;;;;;;;14.65;92.98;100974.00;4908170;29;20036;-72
2022/10/10 09:46:48;;;;;;;12.32;2.40;;;;;;;14.75;92.82;100979.72;4893430;29;20066;-72
2022/10/10 09:49:15;;;;;;;10.45;2.17;;;;;;;14.70;92.79;100987.69;4908761;29;20131;-72
2022/10/10 09:51:42;;;;;;;10.95;2.40;;;;;;;14.72;92.80;100975.56;4893552;29;20016;-72
2022/10/10 09:54:08;;;;;;;14.32;1.98;;;;;;;14.69;93.29;100973.31;4892912;29;20051;-72
2022/10/10 09:56:48;;;;;;;13.48;2.25;;;;;;;14.67;93.50;100974.56;4902898;29;20032;-72
2022/10/10 09:59:39;;;;;;;12.90;2.55;;;;;;;14.66;93.69;100972.94;4897836;29;20055;-72
2022/10/10 10:02:18;;;;;;;13.07;2.28;;;;;;;14.64;93.86;100956.09;4883964;29;20064;-72
2022/10/10 10:04:45;;;;;;;14.15;2.20;;;;;;;14.79;93.53;100972.81;4897717;29;20055;-72
2022/10/10 10:07:25;;;;;;;13.23;2.22;;;;;;;14.77;94.14;100961.38;4882386;29;20517;-72
2022/10/10 10:09:59;;;;;;;13.98;2.88;;;;;;;14.48;94.36;100916.81;4897740;29;20044;-72
2022/10/10 10:12:29;;;;;;;;;;;;;;;14.71;93.84;100959.56;4898241;29;20051;-72
2022/10/10 10:15:15;;;;;;;10.23;2.35;;;;;;;14.50;93.96;100931.84;4902075;29;19915;-72
2022/10/10 10:17:41;;;;;;;12.63;2.05;;;;;;;14.62;94.32;100945.47;4939900;29;20397;-72
2022/10/10 10:20:29;;;;;;;13.10;2.25;;;;;;;14.65;93.57;100945.03;4939712;29;20039;-72
2022/10/10 10:22:54;;;;;;;11.13;2.40;;;;;;;14.82;93.92;100952.56;4956620;29;20134;-72
2022/10/10 10:25:34;;;;;;;14.52;2.42;;;;;;;14.88;93.09;100944.38;4939478;28;20138;-72
2022/10/10 10:28:19;;;;;;;9.15;2.03;;;;;;;15.03;92.68;100933.16;4941557;29;20042;-72
2022/10/10 10:30:45;;;;;;;13.02;2.30;;;;;;;15.07;92.33;100931.69;4956255;29;20502;-72
2022/10/10 10:33:19;;;;;;;15.38;2.42;;;;;;;15.11;92.40;100918.50;4956206;29;20046;-72
2022/10/10 10:36:15;;;;;;;14.50;2.75;;;;;;;15.02;92.40;100921.50;4938950;29;20516;-73
2022/10/10 10:39:02;;;;;;;14.10;2.65;;;;;;;15.10;92.34;100919.53;4939223;29;20494;-71
2022/10/10 10:41:37;;;;;;;11.05;2.80;;;;;;;14.94;91.99;100883.06;4956392;29;20082;-71
2022/10/10 10:44:27;;;;;;;18.75;2.65;;;;;;;14.98;91.33;100904.03;4941299;29;20039;-71
2022/10/10 10:47:11;;;;;;;10.52;2.22;;;;;;;15.07;91.66;100906.47;4956431;29;20039;-71
2022/10/10 10:50:24;;;;;;;11.40;2.58;;;;;;;14.94;92.35;100897.44;4956004;29;20023;-71
2022/10/10 10:53:03;;;;;;;9.05;2.42;;;;;;;14.94;92.12;100885.78;4912169;29;20043;-72
2022/10/10 10:55:54;;;;;;;12.05;2.60;;;;;;;14.90;92.13;100877.25;4945666;28;20042;-71
2022/10/10 10:58:41;;;;;;;15.52;2.80;;;;;;;14.90;91.72;100887.25;4927690;29;20062;-71
2022/10/10 11:01:25;;;;;;;12.15;2.72;;;;;;;14.78;92.07;100868.22;4946759;29;20031;-73
2022/10/10 11:03:53;;;;;;;17.15;2.63;;;;;;;14.79;92.38;100891.53;4948671;29;20063;-72
2022/10/10 11:06:40;;;;;;;11.20;2.10;;;;;;;14.77;92.33;100878.25;4930617;29;20042;-72
2022/10/10 11:09:18;;;;;;;13.27;2.50;;;;;;;14.84;92.16;100863.78;4942341;29;20114;-72
2022/10/10 11:12:04;;;;;;;12.02;2.80;;;;;;;14.83;91.91;100848.56;4947648;29;20019;-73
2022/10/10 11:15:00;;;;;;;9.50;1.98;;;;;;;15.04;91.81;100870.63;4931028;29;20039;-73
2022/10/10 11:17:40;;;;;;;11.10;1.98;;;;;;;14.85;92.03;100860.03;4904132;29;20572;-73
2022/10/10 11:20:29;;;;;;;15.23;3.00;;;;;;;14.96;91.49;100873.63;4948126;29;20039;-75
2022/10/10 11:23:10;;;;;;;13.00;2.90;;;;;;;14.95;91.67;100869.28;4947817;29;20031;-70
2022/10/10 11:25:44;;;;;;;11.55;2.67;;;;;;;14.90;91.56;100852.88;4936752;29;20044;-70
2022/10/10 11:28:15;;;;;;;10.70;2.30;;;;;;;15.04;91.73;100877.94;4954396;29;20098;-70